Time;durP1;ratioP1;P1;durP2;ratioP2;P2;SDS_P1;SDS_P2;PMS_P1;PMS_P2;Temp;Humidity;BMP_temperature;BMP_pressure;BME280_temperature;BME280_humidity;BME280_pressure;Samples;Min_cycle;Max_cycle;Signal;HPM_P1;HPM_P2
2023/08/18 00:04:16;;;;;;;;;;;;;;;22.80;56.62;95897.25;10487968;28;2312;-66
2023/08/18 00:09:17;;;;;;;;;;;;;;;22.73;56.46;95888.91;10468346;28;2030;-66
2023/08/18 00:14:17;;;;;;;;;;;;;;;22.62;56.05;95885.59;10468151;28;2068;-66
2023/08/18 00:19:17;;;;;;;;;;;;;;;22.48;56.21;95866.97;10465895;28;1961;-66
2023/08/18 00:24:17;;;;;;;;;;;;;;;22.47;55.90;95852.19;10497954;28;2900;-66
2023/08/18 00:29:18;;;;;;;;;;;;;;;22.53;55.79;95852.91;10467276;28;1938;-66
2023/08/18 00:34:18;;;;;;;;;;;;;;;22.53;55.90;95851.06;10467270;28;1951;-66
2023/08/18 00:39:18;;;;;;;;;;;;;;;22.60;55.92;95843.63;10464724;28;2017;-67
2023/08/18 00:44:18;;;;;;;;;;;;;;;22.62;55.77;95845.97;10461586;28;4517;-66
2023/08/18 00:49:19;;;;;;;;;;;;;;;22.61;55.55;95833.81;10472886;28;1908;-67
2023/08/18 00:54:19;;;;;;;;;;;;;;;22.66;55.67;95833.75;10469822;28;1914;-66
2023/08/18 00:59:19;;;;;;;;;;;;;;;22.71;55.40;95838.19;10498245;28;2006;-66
2023/08/18 01:04:20;;;;;;;;;;;;;;;22.73;55.32;95817.56;10498319;28;1961;-67
2023/08/18 01:09:20;;;;;;;;;;;;;;;22.66;55.23;95807.34;10497869;28;2095;-67
2023/08/18 01:14:23;;;;;;;;;;;;;;;22.67;55.42;95803.59;10465269;28;1979;-67
2023/08/18 01:19:23;;;;;;;;;;;;;;;22.66;55.02;95796.75;10471004;28;2237;-67
2023/08/18 01:24:27;;;;;;;;;;;;;;;22.69;54.95;95798.06;10466369;28;2016;-67
2023/08/18 01:29:27;;;;;;;;;;;;;;;22.74;55.19;95787.41;10472609;28;1944;-66
2023/08/18 01:34:28;;;;;;;;;;;;;;;22.71;55.06;95783.47;10465613;28;2234;-67
2023/08/18 01:39:28;;;;;;;;;;;;;;;22.60;54.97;95777.56;10466059;28;1962;-67
2023/08/18 01:44:28;;;;;;;;;;;;;;;22.61;55.00;95763.28;10467587;28;4500;-67
2023/08/18 01:49:29;;;;;;;;;;;;;;;22.59;54.92;95761.97;10467455;28;2186;-66
2023/08/18 01:54:29;;;;;;;;;;;;;;;22.48;55.03;95748.09;10463740;28;1982;-66
2023/08/18 01:59:29;;;;;;;;;;;;;;;22.52;55.14;95745.69;10469842;28;2321;-66
2023/08/18 02:04:29;;;;;;;;;;;;;;;22.48;55.17;95734.13;10466759;28;2013;-67
2023/08/18 02:09:30;;;;;;;;;;;;;;;22.49;55.20;95725.91;10471941;28;1958;-66
2023/08/18 02:14:30;;;;;;;;;;;;;;;22.51;54.92;95725.59;10477151;28;1971;-66
2023/08/18 02:19:30;;;;;;;;;;;;;;;22.52;55.03;95717.38;10487429;28;2309;-67
2023/08/18 02:24:30;;;;;;;;;;;;;;;22.50;55.07;95724.81;10480293;28;2034;-66
2023/08/18 02:29:31;;;;;;;;;;;;;;;22.51;54.90;95726.41;10476064;28;2018;-66
2023/08/18 02:34:31;;;;;;;;;;;;;;;22.54;54.85;95731.13;10464923;28;1977;-66
2023/08/18 02:39:32;;;;;;;;;;;;;;;22.52;54.70;95738.53;10473042;28;1884;-66
2023/08/18 02:44:32;;;;;;;;;;;;;;;22.52;54.63;95733.25;10476717;28;1978;-66
2023/08/18 02:49:32;;;;;;;;;;;;;;;22.52;54.78;95738.53;10496563;27;2162;-66
2023/08/18 02:54:32;;;;;;;;;;;;;;;22.53;54.92;95742.75;10467775;28;2122;-66
2023/08/18 02:59:33;;;;;;;;;;;;;;;22.51;54.84;95742.25;10468466;28;2018;-66
2023/08/18 03:04:33;;;;;;;;;;;;;;;22.51;54.93;95747.53;10475722;28;1919;-66
2023/08/18 03:09:33;;;;;;;;;;;;;;;22.51;54.71;95752.81;10474714;28;1955;-66
2023/08/18 03:14:33;;;;;;;;;;;;;;;22.52;54.80;95748.31;10466980;28;2640;-66
2023/08/18 03:19:34;;;;;;;;;;;;;;;22.57;54.74;95756.97;10465205;28;1934;-66
2023/08/18 03:24:34;;;;;;;;;;;;;;;22.60;54.86;95764.34;10502350;28;2140;-67
2023/08/18 03:29:34;;;;;;;;;;;;;;;22.60;54.85;95767.00;10470832;28;1961;-67
2023/08/18 03:34:34;;;;;;;;;;;;;;;22.60;54.86;95768.84;10472932;28;1980;-67
2023/08/18 03:39:35;;;;;;;;;;;;;;;22.47;54.89;95757.09;10474523;28;2003;-65
2023/08/18 03:44:35;;;;;;;;;;;;;;;22.45;54.75;95761.09;10476108;28;4454;-67
2023/08/18 03:49:35;;;;;;;;;;;;;;;22.50;54.55;95767.06;10476585;28;1978;-67
2023/08/18 03:54:36;;;;;;;;;;;;;;;22.57;55.09;95772.81;10481456;28;1999;-66
2023/08/18 03:59:37;;;;;;;;;;;;;;;22.63;54.91;95776.97;10477713;28;2002;-68
2023/08/18 04:04:37;;;;;;;;;;;;;;;22.66;54.88;95780.91;10471521;28;1954;-66
2023/08/18 04:09:37;;;;;;;;;;;;;;;22.65;55.00;95785.41;10471176;28;2022;-67
2023/08/18 04:14:37;;;;;;;;;;;;;;;22.68;54.89;95789.34;10475773;28;2258;-71
2023/08/18 04:19:38;;;;;;;;;;;;;;;22.70;54.88;95794.34;10470747;28;1935;-72
2023/08/18 04:24:38;;;;;;;;;;;;;;;22.67;55.01;95792.28;10468448;28;1947;-69
2023/08/18 04:29:38;;;;;;;;;;;;;;;22.65;55.10;95785.41;10465470;28;2045;-73
2023/08/18 04:34:39;;;;;;;;;;;;;;;22.71;55.09;95788.00;10469163;28;1984;-67
2023/08/18 04:39:40;;;;;;;;;;;;;;;22.75;55.01;95796.91;10471927;28;2131;-67
2023/08/18 04:44:40;;;;;;;;;;;;;;;22.75;54.97;95799.56;10465598;28;4477;-67
2023/08/18 04:49:40;;;;;;;;;;;;;;;22.78;54.92;95801.63;10469186;28;1993;-67
2023/08/18 04:54:41;;;;;;;;;;;;;;;22.79;55.06;95805.84;10470607;28;1981;-66
2023/08/18 04:59:41;;;;;;;;;;;;;;;22.78;54.85;95798.97;10469527;28;2012;-66
2023/08/18 05:04:42;;;;;;;;;;;;;;;22.76;54.87;95817.75;10470141;28;2203;-67
2023/08/18 05:09:42;;;;;;;;;;;;;;;22.75;54.75;95812.78;10467711;28;2022;-66
2023/08/18 05:14:42;;;;;;;;;;;;;;;22.75;54.59;95824.09;10475011;28;1975;-66
2023/08/18 05:19:42;;;;;;;;;;;;;;;22.76;54.71;95827.53;10476964;28;1936;-67
2023/08/18 05:24:43;;;;;;;;;;;;;;;22.74;54.61;95825.19;10475302;28;1945;-66
2023/08/18 05:29:43;;;;;;;;;;;;;;;22.74;54.59;95821.75;10472434;28;1876;-67
2023/08/18 05:34:43;;;;;;;;;;;;;;;22.72;54.74;95819.41;10465312;28;1939;-67
2023/08/18 05:39:44;;;;;;;;;;;;;;;22.72;54.60;95826.53;10472274;28;1892;-67
2023/08/18 05:44:44;;;;;;;;;;;;;;;22.76;54.55;95824.91;10494767;28;4524;-65
2023/08/18 05:49:44;;;;;;;;;;;;;;;22.76;54.64;95819.63;10467363;28;1971;-67
2023/08/18 05:54:44;;;;;;;;;;;;;;;22.76;54.47;95832.81;10465142;28;1971;-67
2023/08/18 05:59:45;;;;;;;;;;;;;;;22.74;54.62;95824.41;10468211;28;2036;-67
2023/08/18 06:04:45;;;;;;;;;;;;;;;22.77;54.58;95823.84;10490067;28;2344;-66
2023/08/18 06:09:45;;;;;;;;;;;;;;;22.78;54.82;95833.31;10470069;28;1987;-65
2023/08/18 06:14:45;;;;;;;;;;;;;;;22.79;54.75;95832.28;10469936;28;1906;-69
2023/08/18 06:19:46;;;;;;;;;;;;;;;22.79;54.83;95827.78;10462880;28;1955;-69
2023/08/18 06:24:46;;;;;;;;;;;;;;;22.80;54.89;95842.56;10460150;28;2182;-69
2023/08/18 06:29:46;;;;;;;;;;;;;;;22.84;54.61;95832.19;10495286;28;2017;-68
2023/08/18 06:34:47;;;;;;;;;;;;;;;22.86;54.52;95832.69;10463446;28;1914;-69
2023/08/18 06:39:47;;;;;;;;;;;;;;;22.84;54.32;95832.19;10462853;28;2173;-69
2023/08/18 06:44:47;;;;;;;;;;;;;;;22.85;54.51;95833.78;10492794;28;4484;-68
2023/08/18 06:49:47;;;;;;;;;;;;;;;22.87;54.60;95834.28;10501659;27;1970;-70
2023/08/18 06:54:48;;;;;;;;;;;;;;;22.83;54.67;95836.72;10472473;28;2099;-70
2023/08/18 06:59:48;;;;;;;;;;;;;;;22.80;54.56;95839.13;10478319;28;2233;-69
2023/08/18 07:04:49;;;;;;;;;;;;;;;22.73;54.74;95846.63;10474783;28;2089;-69
2023/08/18 07:09:49;;;;;;;;;;;;;;;22.78;54.60;95854.47;10463467;28;1993;-70
2023/08/18 07:14:50;;;;;;;;;;;;;;;22.83;54.67;95849.13;10467683;28;1958;-69
2023/08/18 07:19:50;;;;;;;;;;;;;;;22.85;54.26;95857.56;10467010;28;2070;-70
2023/08/18 07:24:50;;;;;;;;;;;;;;;22.86;54.59;95849.34;10466942;28;2110;-69
2023/08/18 07:29:51;;;;;;;;;;;;;;;22.87;54.37;95850.91;10496058;27;1997;-68
2023/08/18 07:34:51;;;;;;;;;;;;;;;22.85;53.96;95849.63;10498258;27;2028;-68
2023/08/18 07:39:51;;;;;;;;;;;;;;;22.89;53.91;95855.91;10464379;28;2245;-68
2023/08/18 07:44:51;;;;;;;;;;;;;;;22.93;53.69;95860.34;10465669;28;4469;-68
2023/08/18 07:49:52;;;;;;;;;;;;;;;22.89;53.05;95858.56;10474776;28;2258;-68
2023/08/18 07:54:52;;;;;;;;;;;;;;;22.95;53.47;95860.84;10471691;28;1947;-68
2023/08/18 07:59:52;;;;;;;;;;;;;;;23.00;53.53;95867.94;10472146;28;1833;-70
2023/08/18 08:04:53;;;;;;;;;;;;;;;23.08;53.58;95862.00;10466373;28;1897;-69
2023/08/18 08:09:56;;;;;;;;;;;;;;;23.14;53.62;95871.44;10469813;28;1974;-69
2023/08/18 08:14:57;;;;;;;;;;;;;;;23.18;53.34;95867.13;10462318;28;1995;-70
2023/08/18 08:19:58;;;;;;;;;;;;;;;23.22;53.24;95868.13;10473978;28;2007;-69
2023/08/18 08:24:58;;;;;;;;;;;;;;;23.25;53.11;95859.59;10467224;28;1989;-68
2023/08/18 08:29:58;;;;;;;;;;;;;;;23.29;53.45;95864.03;10469562;28;1844;-68
2023/08/18 08:34:58;;;;;;;;;;;;;;;;;;10469326;28;1975;-69
2023/08/18 08:39:59;;;;;;;;;;;;;;;23.39;53.12;95855.97;10478268;28;2130;-69
2023/08/18 08:44:59;;;;;;;;;;;;;;;23.45;52.91;95859.34;10471521;28;4509;-69
2023/08/18 08:50:00;;;;;;;;;;;;;;;23.47;53.15;95859.84;10459538;28;2281;-69
2023/08/18 08:55:00;;;;;;;;;;;;;;;23.51;53.20;95860.84;10467869;28;1935;-68
2023/08/18 09:00:01;;;;;;;;;;;;;;;23.55;53.13;95861.81;10461335;28;2162;-67
2023/08/18 09:05:01;;;;;;;;;;;;;;;23.58;52.76;95855.16;10461629;28;1979;-69
2023/08/18 09:10:02;;;;;;;;;;;;;;;23.64;52.19;95856.66;10496555;27;2092;-70
2023/08/18 09:15:02;;;;;;;;;;;;;;;23.67;52.87;95848.13;10493059;28;2009;-68
2023/08/18 09:20:03;;;;;;;;;;;;;;;23.72;53.28;95856.75;10453780;28;1955;-68
2023/08/18 09:25:03;;;;;;;;;;;;;;;23.75;52.94;95855.41;10467509;28;1965;-68
2023/08/18 09:30:04;;;;;;;;;;;;;;;23.78;53.06;95849.53;10467176;28;2218;-68
2023/08/18 09:35:09;;;;;;;;;;;;;;;23.81;52.64;95847.09;10468330;28;1922;-63
2023/08/18 09:40:10;;;;;;;;;;;;;;;23.88;52.78;95859.94;10461640;28;1975;-68
2023/08/18 09:45:10;;;;;;;;;;;;;;;23.90;52.89;95850.63;10495211;28;4871;-68
2023/08/18 09:50:10;;;;;;;;;;;;;;;23.95;52.98;95849.75;10465334;28;2015;-68
2023/08/18 09:55:11;;;;;;;;;;;;;;;23.96;52.99;95843.38;10461825;28;1906;-68
2023/08/18 10:00:12;;;;;;;;;;;;;;;23.99;52.71;95840.94;10490400;28;1974;-67
2023/08/18 10:05:12;;;;;;;;;;;;;;;24.06;52.59;95841.38;10459498;28;2013;-66
2023/08/18 10:10:12;;;;;;;;;;;;;;;24.10;52.90;95837.06;10463972;28;1955;-66
2023/08/18 10:15:13;;;;;;;;;;;;;;;24.13;52.87;95840.97;10491929;28;2161;-78
2023/08/18 10:20:13;;;;;;;;;;;;;;;24.11;53.10;95843.91;10483000;28;1967;-77
2023/08/18 10:25:35;;;;;;;;;;;;;;;24.13;53.35;95844.41;10484245;28;1950;-78
2023/08/18 10:30:35;;;;;;;;;;;;;;;24.14;53.30;95845.97;10483525;28;1924;-79
2023/08/18 10:35:39;;;;;;;;;;;;;;;24.15;53.68;95842.25;10475021;28;1975;-76
2023/08/18 10:40:39;;;;;;;;;;;;;;;24.16;53.57;95830.59;10477149;28;4457;-75
2023/08/18 10:45:39;;;;;;;;;;;;;;;24.17;53.81;95831.38;10471153;28;2349;-76
2023/08/18 10:50:41;;;;;;;;;;;;;;;24.17;53.68;95826.84;10473303;28;2011;-75
2023/08/18 10:55:42;;;;;;;;;;;;;;;24.18;53.43;95833.72;10472263;28;1926;-75
2023/08/18 11:00:43;;;;;;;;;;;;;;;24.19;53.66;95827.31;10472373;28;1938;-74
2023/08/18 11:05:43;;;;;;;;;;;;;;;24.19;53.58;95814.09;10503369;28;1962;-74
2023/08/18 11:10:43;;;;;;;;;;;;;;;24.19;53.49;95808.78;10515932;28;1899;-76
2023/08/18 11:15:43;;;;;;;;;;;;;;;24.22;53.51;95810.06;10475288;28;1975;-75
2023/08/18 11:20:44;;;;;;;;;;;;;;;24.21;53.38;95800.56;10479595;28;1937;-75
2023/08/18 11:25:45;;;;;;;;;;;;;;;24.22;53.25;95792.31;10507291;27;1875;-74
2023/08/18 11:30:45;;;;;;;;;;;;;;;24.22;53.33;95792.31;10477446;28;1817;-75
2023/08/18 11:35:45;;;;;;;;;;;;;;;24.24;53.55;95800.75;10469111;28;1947;-75
2023/08/18 11:40:46;;;;;;;;;;;;;;;24.24;53.48;95794.66;10463507;28;4509;-76
2023/08/18 11:45:46;;;;;;;;;;;;;;;24.24;53.26;95790.16;10497944;28;1859;-75
2023/08/18 11:50:46;;;;;;;;;;;;;;;24.25;53.02;95789.06;10466145;28;1904;-75
2023/08/18 11:55:47;;;;;;;;;;;;;;;24.26;53.31;95797.81;10473931;28;1973;-75
2023/08/18 12:00:48;;;;;;;;;;;;;;;24.27;53.40;95791.44;10470263;28;2007;-76
2023/08/18 12:05:48;;;;;;;;;;;;;;;24.27;53.33;95788.78;10466819;28;1904;-76
2023/08/18 12:10:49;;;;;;;;;;;;;;;24.29;53.14;95791.13;10475076;28;1895;-77
2023/08/18 12:15:50;;;;;;;;;;;;;;;24.30;53.04;95787.41;10473106;28;1982;-78
2023/08/18 12:20:50;;;;;;;;;;;;;;;24.30;53.17;95776.81;10474528;28;1979;-77
2023/08/18 12:25:51;;;;;;;;;;;;;;;24.32;53.09;95780.72;10471259;28;1718;-78
2023/08/18 12:30:51;;;;;;;;;;;;;;;24.32;53.04;95772.00;10467201;28;1938;-76
2023/08/18 12:35:51;;;;;;;;;;;;;;;24.34;53.01;95777.81;10472021;28;2267;-77
2023/08/18 12:40:51;;;;;;;;;;;;;;;24.33;53.14;95769.06;10467770;28;4684;-77
2023/08/18 12:45:52;;;;;;;;;;;;;;;24.35;53.04;95769.53;10460224;28;1955;-77
2023/08/18 12:50:52;;;;;;;;;;;;;;;24.36;53.21;95765.81;10495489;28;1936;-79
2023/08/18 12:55:52;;;;;;;;;;;;;;;24.37;53.40;95761.28;10471017;28;1947;-78
2023/08/18 13:00:53;;;;;;;;;;;;;;;24.37;53.07;95767.38;10466253;28;1889;-72
2023/08/18 13:05:53;;;;;;;;;;;;;;;24.39;53.17;95765.22;10462726;28;1900;-68
2023/08/18 13:10:53;;;;;;;;;;;;;;;24.37;53.36;95756.00;10470915;28;1975;-75
2023/08/18 13:15:53;;;;;;;;;;;;;;;24.42;53.05;95766.50;10468944;28;1955;-76
2023/08/18 13:20:54;;;;;;;;;;;;;;;24.42;53.28;95764.63;10466176;28;1483;-75
2023/08/18 13:25:55;;;;;;;;;;;;;;;24.44;53.20;95765.09;10468566;28;1837;-77
2023/08/18 13:30:56;;;;;;;;;;;;;;;24.45;53.27;95761.38;10462344;28;2233;-75
2023/08/18 13:35:56;;;;;;;;;;;;;;;24.46;53.12;95754.22;10468783;28;1933;-78
2023/08/18 13:40:56;;;;;;;;;;;;;;;24.47;53.21;95740.66;10496676;28;4516;-73
2023/08/18 13:45:57;;;;;;;;;;;;;;;24.49;53.26;95750.97;10466301;28;1830;-72
2023/08/18 13:50:57;;;;;;;;;;;;;;;24.50;53.20;95741.94;10469356;28;1791;-72
2023/08/18 13:55:57;;;;;;;;;;;;;;;24.51;53.18;95738.19;10478165;28;1913;-73
2023/08/18 14:01:00;;;;;;;;;;;;;;;24.52;53.29;95737.91;10468908;28;1838;-73
2023/08/18 14:06:01;;;;;;;;;;;;;;;24.54;53.21;95745.56;10473253;28;1973;-73
2023/08/18 14:11:01;;;;;;;;;;;;;;;24.54;53.02;95742.91;10472974;28;1786;-73
2023/08/18 14:16:02;;;;;;;;;;;;;;;24.53;53.20;95742.13;10473814;28;1963;-73
2023/08/18 14:21:04;;;;;;;;;;;;;;;24.55;52.95;95747.13;10473129;28;1825;-73
2023/08/18 14:26:04;;;;;;;;;;;;;;;24.56;53.12;95738.09;10465370;28;1767;-73
2023/08/18 14:31:08;;;;;;;;;;;;;;;24.57;52.96;95737.78;10461950;28;2513;-73
2023/08/18 14:36:08;;;;;;;;;;;;;;;24.58;53.05;95739.38;10492957;28;2117;-73
2023/08/18 14:41:09;;;;;;;;;;;;;;;24.57;53.04;95734.34;10468472;28;4513;-73
2023/08/18 14:46:09;;;;;;;;;;;;;;;24.58;52.81;95726.13;10470305;28;1958;-73
2023/08/18 14:51:09;;;;;;;;;;;;;;;24.59;53.03;95729.53;10461431;28;1961;-72
2023/08/18 14:56:13;;;;;;;;;;;;;;;24.60;52.79;95725.81;10469676;28;1977;-72
2023/08/18 15:01:13;;;;;;;;;;;;;;;24.60;52.01;95723.16;10472092;28;2024;-69
2023/08/18 15:06:13;;;;;;;;;;;;;;;24.60;52.41;95723.16;10501110;28;1658;-71
2023/08/18 15:11:13;;;;;;;;;;;;;;;24.60;52.33;95713.34;10500049;28;1869;-72
2023/08/18 15:16:14;;;;;;;;;;;;;;;24.62;52.31;95713.03;10475264;28;1906;-72
2023/08/18 15:21:14;;;;;;;;;;;;;;;24.64;52.29;95721.47;10471394;28;1885;-72
2023/08/18 15:26:14;;;;;;;;;;;;;;;24.64;52.27;95713.53;10472849;28;1881;-72
2023/08/18 15:31:17;;;;;;;;;;;;;;;24.65;52.31;95709.78;10472783;28;1884;-75
2023/08/18 15:36:17;;;;;;;;;;;;;;;24.65;52.50;95709.78;10503636;27;1994;-74
2023/08/18 15:41:17;;;;;;;;;;;;;;;24.67;52.41;95707.63;10467572;28;4593;-74
2023/08/18 15:46:17;;;;;;;;;;;;;;;24.67;52.61;95704.97;10503499;28;1935;-75
2023/08/18 15:51:18;;;;;;;;;;;;;;;24.67;52.79;95697.81;10473190;28;1661;-74
2023/08/18 15:56:18;;;;;;;;;;;;;;;24.67;52.67;95702.31;10472008;28;1961;-76
2023/08/18 16:01:18;;;;;;;;;;;;;;;24.68;52.56;95699.38;10468608;28;1837;-75
2023/08/18 16:06:19;;;;;;;;;;;;;;;24.69;52.43;95700.19;10466601;28;1833;-74
2023/08/18 16:11:19;;;;;;;;;;;;;;;24.70;52.43;95701.72;10472671;28;1873;-74
2023/08/18 16:16:19;;;;;;;;;;;;;;;24.71;52.38;95698.00;10463220;28;1973;-75
2023/08/18 16:21:19;;;;;;;;;;;;;;;24.70;52.57;95696.44;10462135;28;2449;-74
2023/08/18 16:26:20;;;;;;;;;;;;;;;24.70;52.47;95699.06;10468157;28;1861;-75
2023/08/18 16:31:20;;;;;;;;;;;;;;;24.70;52.33;95701.72;10477389;28;1801;-75
2023/08/18 16:36:20;;;;;;;;;;;;;;;24.71;52.18;95700.66;10471709;28;1917;-74
2023/08/18 16:41:21;;;;;;;;;;;;;;;24.72;52.24;95699.56;10471378;28;4599;-75
2023/08/18 16:46:21;;;;;;;;;;;;;;;24.74;51.59;95692.13;10467044;28;1823;-74
2023/08/18 16:51:21;;;;;;;;;;;;;;;24.73;51.57;95690.53;10467350;28;1869;-75
2023/08/18 16:56:21;;;;;;;;;;;;;;;24.73;51.75;95698.50;10464978;28;1967;-74
2023/08/18 17:01:22;;;;;;;;;;;;;;;24.74;51.73;95698.22;10489823;28;1822;-76
2023/08/18 17:06:26;;;;;;;;;;;;;;;24.76;52.15;95708.50;10471175;28;1809;-72
2023/08/18 17:11:26;;;;;;;;;;;;;;;24.76;52.04;95717.25;10469614;28;1893;-72
2023/08/18 17:16:26;;;;;;;;;;;;;;;24.78;52.17;95727.53;10465732;28;2328;-76
2023/08/18 17:21:27;;;;;;;;;;;;;;;24.79;52.40;95726.47;10461693;28;1829;-71
2023/08/18 17:26:27;;;;;;;;;;;;;;;24.80;52.39;95720.06;10465470;28;1854;-71
2023/08/18 17:31:27;;;;;;;;;;;;;;;24.82;52.69;95718.69;10462363;28;1802;-74
2023/08/18 17:36:28;;;;;;;;;;;;;;;24.84;52.66;95721.03;10493585;28;1975;-72
2023/08/18 17:41:29;;;;;;;;;;;;;;;24.85;52.87;95725.28;10461484;28;4569;-71
2023/08/18 17:46:29;;;;;;;;;;;;;;;24.88;52.56;95724.66;10490414;28;1858;-74
2023/08/18 17:51:30;;;;;;;;;;;;;;;24.86;52.58;95724.16;10466852;28;1829;-73
2023/08/18 17:56:30;;;;;;;;;;;;;;;24.87;52.50;95720.44;10465298;28;1988;-73
2023/08/18 18:01:30;;;;;;;;;;;;;;;24.87;52.44;95728.41;10491724;28;1791;-71
2023/08/18 18:06:30;;;;;;;;;;;;;;;24.88;52.59;95719.34;10464488;28;1903;-71
2023/08/18 18:11:31;;;;;;;;;;;;;;;24.86;52.94;95714.34;10467900;28;2248;-71
2023/08/18 18:16:31;;;;;;;;;;;;;;;24.89;52.90;95720.94;10455693;28;1985;-72
2023/08/18 18:21:31;;;;;;;;;;;;;;;24.90;52.94;95733.09;10493872;28;1870;-73
2023/08/18 18:26:32;;;;;;;;;;;;;;;24.90;52.81;95736.53;10469055;28;1877;-72
2023/08/18 18:31:33;;;;;;;;;;;;;;;24.91;52.96;95746.06;10465008;28;1973;-73
2023/08/18 18:36:33;;;;;;;;;;;;;;;24.90;53.10;95744.50;10463617;28;1963;-71
2023/08/18 18:41:33;;;;;;;;;;;;;;;24.91;53.07;95751.38;10501004;28;4500;-70
2023/08/18 18:46:34;;;;;;;;;;;;;;;24.92;53.25;95757.44;10507768;27;1774;-73
2023/08/18 18:51:34;;;;;;;;;;;;;;;24.92;53.16;95768.84;10475006;28;1888;-73
2023/08/18 18:56:35;;;;;;;;;;;;;;;24.93;53.27;95769.63;10465487;28;1910;-73
2023/08/18 19:01:35;;;;;;;;;;;;;;;24.92;53.05;95778.66;10468673;28;1883;-73
2023/08/18 19:06:35;;;;;;;;;;;;;;;24.93;53.31;95780.22;10458856;28;1889;-74
2023/08/18 19:11:36;;;;;;;;;;;;;;;24.92;53.18;95784.75;10459494;28;2438;-73
2023/08/18 19:16:36;;;;;;;;;;;;;;;24.93;53.22;95783.69;10466622;28;1910;-73
2023/08/18 19:21:36;;;;;;;;;;;;;;;24.93;53.35;95774.94;10474293;28;1821;-74
2023/08/18 19:26:36;;;;;;;;;;;;;;;24.94;53.27;95782.56;10471085;28;1807;-73
2023/08/18 19:31:37;;;;;;;;;;;;;;;24.95;53.34;95767.44;10470867;28;1869;-74
2023/08/18 19:36:37;;;;;;;;;;;;;;;24.96;53.39;95779.63;10481044;28;1992;-73
2023/08/18 19:41:37;;;;;;;;;;;;;;;24.94;53.27;95766.66;10461692;28;4485;-73
2023/08/18 19:46:38;;;;;;;;;;;;;;;24.95;53.33;95768.25;10461178;28;1897;-73
2023/08/18 19:51:38;;;;;;;;;;;;;;;24.97;53.33;95767.94;10465243;28;1869;-73
2023/08/18 19:56:38;;;;;;;;;;;;;;;24.98;53.41;95767.63;10492754;28;1910;-73
2023/08/18 20:01:38;;;;;;;;;;;;;;;24.99;53.50;95765.78;10501417;28;1845;-74
2023/08/18 20:06:39;;;;;;;;;;;;;;;25.00;53.22;95770.75;10465015;28;2323;-71
2023/08/18 20:11:39;;;;;;;;;;;;;;;25.03;53.29;95777.34;10463145;28;2124;-70
2023/08/18 20:16:40;;;;;;;;;;;;;;;24.99;52.71;95774.50;10455418;28;1914;-70
2023/08/18 20:21:41;;;;;;;;;;;;;;;24.97;52.85;95775.91;10478127;28;1718;-69
2023/08/18 20:26:41;;;;;;;;;;;;;;;24.92;52.37;95781.31;10469291;28;1849;-70
2023/08/18 20:31:41;;;;;;;;;;;;;;;24.90;52.39;95784.25;10497113;28;1802;-72
2023/08/18 20:36:42;;;;;;;;;;;;;;;24.88;52.38;95775.81;10497372;27;1918;-73
2023/08/18 20:41:42;;;;;;;;;;;;;;;24.87;52.16;95778.78;10453368;28;4402;-71
2023/08/18 20:46:44;;;;;;;;;;;;;;;24.85;52.23;95783.59;10465253;28;1885;-70
2023/08/18 20:51:45;;;;;;;;;;;;;;;24.81;52.13;95788.69;10470220;28;1821;-71
2023/08/18 20:56:46;;;;;;;;;;;;;;;24.79;51.86;95788.22;10469917;28;1932;-69
2023/08/18 21:01:46;;;;;;;;;;;;;;;24.75;51.84;95787.25;10463667;28;1985;-69
2023/08/18 21:06:47;;;;;;;;;;;;;;;24.72;51.52;95787.03;10469277;28;1885;-69
2023/08/18 21:11:47;;;;;;;;;;;;;;;24.66;51.38;95783.72;10470459;28;1880;-68
2023/08/18 21:16:47;;;;;;;;;;;;;;;24.61;51.30;95786.47;10476680;28;1965;-68
2023/08/18 21:21:48;;;;;;;;;;;;;;;24.61;51.49;95788.31;10468323;28;2203;-68
2023/08/18 21:26:49;;;;;;;;;;;;;;;24.58;51.33;95788.94;10468929;28;1881;-67
2023/08/18 21:31:49;;;;;;;;;;;;;;;24.59;51.52;95783.34;10463652;28;2048;-68
2023/08/18 21:36:49;;;;;;;;;;;;;;;24.56;51.21;95786.59;10470150;28;1955;-69
2023/08/18 21:41:49;;;;;;;;;;;;;;;24.56;51.39;95786.59;10465958;28;1958;-71
2023/08/18 21:46:50;;;;;;;;;;;;;;;24.55;51.40;95794.81;10468653;28;1952;-68
2023/08/18 21:51:50;;;;;;;;;;;;;;;24.50;51.10;95802.91;10469129;28;1881;-69
2023/08/18 21:56:51;;;;;;;;;;;;;;;24.44;51.19;95798.78;10465956;28;2226;-69
2023/08/18 22:01:51;;;;;;;;;;;;;;;24.45;51.34;95792.38;10469447;28;1801;-69
2023/08/18 22:06:51;;;;;;;;;;;;;;;24.43;51.20;95790.03;10471837;28;1747;-69
2023/08/18 22:11:51;;;;;;;;;;;;;;;24.34;51.00;95796.34;10465579;28;2022;-69
2023/08/18 22:16:52;;;;;;;;;;;;;;;24.28;51.09;95776.34;10479576;28;2006;-69
2023/08/18 22:21:52;;;;;;;;;;;;;;;24.27;50.94;95778.19;10478004;28;1849;-69
2023/08/18 22:26:53;;;;;;;;;;;;;;;24.22;51.04;95784.38;10472012;28;2028;-68
2023/08/18 22:31:53;;;;;;;;;;;;;;;24.20;51.10;95785.75;10474044;28;1901;-68
2023/08/18 22:36:53;;;;;;;;;;;;;;;24.20;51.07;95789.19;10500216;28;2038;-67
2023/08/18 22:41:54;;;;;;;;;;;;;;;24.21;51.25;95780.13;10472295;28;4640;-67
2023/08/18 22:47:08;;;;;;;;;;;;;;;24.18;51.16;95785.25;10476541;28;1822;-68
2023/08/18 22:52:09;;;;;;;;;;;;;;;24.10;51.38;95793.88;10469084;28;1873;-70
2023/08/18 22:57:09;;;;;;;;;;;;;;;24.00;51.42;95786.91;10483754;28;2376;-68
2023/08/18 23:02:09;;;;;;;;;;;;;;;23.98;51.71;95789.06;10470637;28;1874;-68
2023/08/18 23:07:10;;;;;;;;;;;;;;;24.00;51.91;95786.91;10494303;28;1880;-69
2023/08/18 23:12:10;;;;;;;;;;;;;;;23.95;51.79;95787.00;10475182;28;2139;-70
2023/08/18 23:17:10;;;;;;;;;;;;;;;23.96;51.71;95793.88;10473901;28;2053;-68
2023/08/18 23:22:11;;;;;;;;;;;;;;;23.91;51.99;95790.50;10472828;28;1955;-70
2023/08/18 23:27:11;;;;;;;;;;;;;;;23.86;52.16;95795.91;10470951;28;1939;-68
2023/08/18 23:32:11;;;;;;;;;;;;;;;23.78;52.30;95792.06;10461075;28;1984;-69
2023/08/18 23:37:11;;;;;;;;;;;;;;;23.79;52.37;95783.06;10466485;28;1914;-68
2023/08/18 23:42:12;;;;;;;;;;;;;;;23.76;52.54;95772.28;10463981;28;4589;-69
2023/08/18 23:47:12;;;;;;;;;;;;;;;23.76;52.69;95775.69;10464458;28;1912;-70
2023/08/18 23:52:12;;;;;;;;;;;;;;;23.77;52.61;95779.94;10474222;28;1948;-69
2023/08/18 23:57:12;;;;;;;;;;;;;;;23.70;52.63;95776.09;10465011;28;1973;-69
